sensor_id;sensor_type;location;lat;lon;timestamp;P1;durP1;ratioP1;P2;durP2;ratioP2
69126;SDS011;56688;50.234;19.292;2023-03-31T00:02:01;19.90;;;13.00;;
69126;SDS011;56688;50.234;19.292;2023-03-31T00:04:32;22.70;;;14.00;;
69126;SDS011;56688;50.234;19.292;2023-03-31T00:06:59;21.80;;;14.40;;
69126;SDS011;56688;50.234;19.292;2023-03-31T00:09:26;22.20;;;14.80;;
69126;SDS011;56688;50.234;19.292;2023-03-31T00:11:55;24.90;;;14.30;;
69126;SDS011;56688;50.234;19.292;2023-03-31T00:14:22;22.20;;;13.60;;
69126;SDS011;56688;50.234;19.292;2023-03-31T00:16:49;21.20;;;13.00;;
69126;SDS011;56688;50.234;19.292;2023-03-31T00:19:16;20.60;;;14.10;;
69126;SDS011;56688;50.234;19.292;2023-03-31T00:21:44;20.50;;;13.10;;
69126;SDS011;56688;50.234;19.292;2023-03-31T00:24:13;17.70;;;11.90;;
69126;SDS011;56688;50.234;19.292;2023-03-31T00:26:41;21.00;;;14.40;;
69126;SDS011;56688;50.234;19.292;2023-03-31T00:29:08;22.10;;;15.00;;
69126;SDS011;56688;50.234;19.292;2023-03-31T00:31:37;20.20;;;13.90;;
69126;SDS011;56688;50.234;19.292;2023-03-31T00:34:04;22.60;;;15.10;;
69126;SDS011;56688;50.234;19.292;2023-03-31T00:36:32;21.70;;;14.20;;
69126;SDS011;56688;50.234;19.292;2023-03-31T00:39:03;20.70;;;14.20;;
69126;SDS011;56688;50.234;19.292;2023-03-31T00:41:35;19.50;;;13.70;;
69126;SDS011;56688;50.234;19.292;2023-03-31T00:49:28;22.50;;;15.70;;
69126;SDS011;56688;50.234;19.292;2023-03-31T00:52:03;30.20;;;19.40;;
69126;SDS011;56688;50.234;19.292;2023-03-31T00:54:34;32.80;;;19.60;;
69126;SDS011;56688;50.234;19.292;2023-03-31T00:57:03;27.60;;;19.20;;
69126;SDS011;56688;50.234;19.292;2023-03-31T00:59:33;24.40;;;16.70;;
69126;SDS011;56688;50.234;19.292;2023-03-31T01:02:05;25.80;;;17.70;;
69126;SDS011;56688;50.234;19.292;2023-03-31T01:04:34;25.70;;;16.60;;
69126;SDS011;56688;50.234;19.292;2023-03-31T01:07:09;26.00;;;17.10;;
69126;SDS011;56688;50.234;19.292;2023-03-31T01:09:44;27.70;;;18.00;;
69126;SDS011;56688;50.234;19.292;2023-03-31T01:12:14;21.40;;;13.90;;
69126;SDS011;56688;50.234;19.292;2023-03-31T01:14:44;24.90;;;17.50;;
69126;SDS011;56688;50.234;19.292;2023-03-31T01:17:13;26.70;;;18.90;;
69126;SDS011;56688;50.234;19.292;2023-03-31T01:19:49;29.00;;;18.60;;
69126;SDS011;56688;50.234;19.292;2023-03-31T01:22:23;25.50;;;15.70;;
69126;SDS011;56688;50.234;19.292;2023-03-31T01:30:25;27.20;;;18.10;;
69126;SDS011;56688;50.234;19.292;2023-03-31T01:33:21;22.70;;;16.60;;
69126;SDS011;56688;50.234;19.292;2023-03-31T01:46:30;19.30;;;13.20;;
69126;SDS011;56688;50.234;19.292;2023-03-31T01:51:56;15.50;;;10.70;;
69126;SDS011;56688;50.234;19.292;2023-03-31T01:54:33;18.60;;;11.90;;
69126;SDS011;56688;50.234;19.292;2023-03-31T01:59:48;14.20;;;8.50;;
69126;SDS011;56688;50.234;19.292;2023-03-31T02:02:29;15.50;;;10.30;;
69126;SDS011;56688;50.234;19.292;2023-03-31T02:04:59;11.60;;;8.70;;
69126;SDS011;56688;50.234;19.292;2023-03-31T02:07:32;12.70;;;8.80;;
69126;SDS011;56688;50.234;19.292;2023-03-31T02:10:03;17.40;;;10.90;;
69126;SDS011;56688;50.234;19.292;2023-03-31T02:12:33;17.70;;;10.60;;
69126;SDS011;56688;50.234;19.292;2023-03-31T02:15:04;16.30;;;11.00;;
69126;SDS011;56688;50.234;19.292;2023-03-31T02:17:35;14.40;;;10.00;;
69126;SDS011;56688;50.234;19.292;2023-03-31T02:20:09;13.00;;;9.60;;
69126;SDS011;56688;50.234;19.292;2023-03-31T02:22:41;10.40;;;6.70;;
69126;SDS011;56688;50.234;19.292;2023-03-31T02:25:13;14.00;;;8.00;;
69126;SDS011;56688;50.234;19.292;2023-03-31T02:27:44;14.40;;;9.70;;
69126;SDS011;56688;50.234;19.292;2023-03-31T02:30:18;15.00;;;9.60;;
69126;SDS011;56688;50.234;19.292;2023-03-31T02:32:45;17.10;;;10.40;;
69126;SDS011;56688;50.234;19.292;2023-03-31T02:35:15;14.00;;;9.80;;
69126;SDS011;56688;50.234;19.292;2023-03-31T02:37:44;15.40;;;10.00;;
69126;SDS011;56688;50.234;19.292;2023-03-31T02:40:16;14.00;;;8.90;;
69126;SDS011;56688;50.234;19.292;2023-03-31T02:42:47;14.30;;;10.40;;
69126;SDS011;56688;50.234;19.292;2023-03-31T02:48:03;15.10;;;9.90;;
69126;SDS011;56688;50.234;19.292;2023-03-31T02:50:34;15.80;;;10.60;;
69126;SDS011;56688;50.234;19.292;2023-03-31T02:56:05;13.70;;;10.80;;
69126;SDS011;56688;50.234;19.292;2023-03-31T03:07:09;16.10;;;11.10;;
69126;SDS011;56688;50.234;19.292;2023-03-31T03:12:32;19.20;;;12.70;;
69126;SDS011;56688;50.234;19.292;2023-03-31T03:15:11;17.90;;;11.90;;
69126;SDS011;56688;50.234;19.292;2023-03-31T03:17:43;16.90;;;11.60;;
69126;SDS011;56688;50.234;19.292;2023-03-31T03:20:13;17.70;;;11.20;;
69126;SDS011;56688;50.234;19.292;2023-03-31T03:22:41;16.40;;;10.70;;
69126;SDS011;56688;50.234;19.292;2023-03-31T03:25:10;23.60;;;11.10;;
69126;SDS011;56688;50.234;19.292;2023-03-31T03:27:38;13.90;;;9.70;;
69126;SDS011;56688;50.234;19.292;2023-03-31T03:30:07;17.80;;;11.10;;
69126;SDS011;56688;50.234;19.292;2023-03-31T03:32:36;13.70;;;8.90;;
69126;SDS011;56688;50.234;19.292;2023-03-31T03:35:03;12.20;;;8.90;;
69126;SDS011;56688;50.234;19.292;2023-03-31T03:37:31;15.00;;;9.50;;
69126;SDS011;56688;50.234;19.292;2023-03-31T03:39:59;15.90;;;9.90;;
69126;SDS011;56688;50.234;19.292;2023-03-31T03:42:26;13.80;;;8.20;;
69126;SDS011;56688;50.234;19.292;2023-03-31T03:44:53;14.30;;;9.40;;
69126;SDS011;56688;50.234;19.292;2023-03-31T03:47:19;13.70;;;8.80;;
69126;SDS011;56688;50.234;19.292;2023-03-31T03:49:46;15.70;;;10.00;;
69126;SDS011;56688;50.234;19.292;2023-03-31T03:52:15;16.50;;;10.30;;
69126;SDS011;56688;50.234;19.292;2023-03-31T03:54:42;18.20;;;10.60;;
69126;SDS011;56688;50.234;19.292;2023-03-31T03:57:09;21.00;;;12.90;;
69126;SDS011;56688;50.234;19.292;2023-03-31T03:59:36;26.70;;;14.10;;
69126;SDS011;56688;50.234;19.292;2023-03-31T04:02:03;21.40;;;13.30;;
69126;SDS011;56688;50.234;19.292;2023-03-31T04:04:30;24.60;;;14.30;;
69126;SDS011;56688;50.234;19.292;2023-03-31T04:06:56;23.50;;;14.60;;
69126;SDS011;56688;50.234;19.292;2023-03-31T04:09:23;23.60;;;15.10;;
69126;SDS011;56688;50.234;19.292;2023-03-31T04:11:51;19.30;;;12.50;;
69126;SDS011;56688;50.234;19.292;2023-03-31T04:14:18;21.80;;;14.10;;
69126;SDS011;56688;50.234;19.292;2023-03-31T04:16:44;23.10;;;13.50;;
69126;SDS011;56688;50.234;19.292;2023-03-31T04:19:13;20.00;;;13.00;;
69126;SDS011;56688;50.234;19.292;2023-03-31T04:21:43;18.70;;;12.80;;
69126;SDS011;56688;50.234;19.292;2023-03-31T04:24:11;19.10;;;13.00;;
69126;SDS011;56688;50.234;19.292;2023-03-31T04:26:41;16.80;;;11.60;;
69126;SDS011;56688;50.234;19.292;2023-03-31T04:29:09;14.00;;;10.50;;
69126;SDS011;56688;50.234;19.292;2023-03-31T04:31:39;16.70;;;10.40;;
69126;SDS011;56688;50.234;19.292;2023-03-31T04:34:09;10.90;;;7.80;;
69126;SDS011;56688;50.234;19.292;2023-03-31T04:36:39;12.30;;;8.70;;
69126;SDS011;56688;50.234;19.292;2023-03-31T04:39:08;12.30;;;8.70;;
69126;SDS011;56688;50.234;19.292;2023-03-31T04:41:36;12.50;;;8.20;;
69126;SDS011;56688;50.234;19.292;2023-03-31T04:44:03;13.80;;;9.80;;
69126;SDS011;56688;50.234;19.292;2023-03-31T04:46:30;14.60;;;9.60;;
69126;SDS011;56688;50.234;19.292;2023-03-31T04:48:58;11.40;;;8.70;;
69126;SDS011;56688;50.234;19.292;2023-03-31T04:51:26;13.20;;;8.70;;
69126;SDS011;56688;50.234;19.292;2023-03-31T04:53:53;13.40;;;9.30;;
69126;SDS011;56688;50.234;19.292;2023-03-31T04:56:21;12.10;;;9.00;;
69126;SDS011;56688;50.234;19.292;2023-03-31T04:58:48;14.00;;;9.90;;
69126;SDS011;56688;50.234;19.292;2023-03-31T05:01:15;13.50;;;10.40;;
69126;SDS011;56688;50.234;19.292;2023-03-31T05:03:45;15.10;;;10.40;;
69126;SDS011;56688;50.234;19.292;2023-03-31T05:06:14;14.50;;;9.70;;
69126;SDS011;56688;50.234;19.292;2023-03-31T05:08:42;11.30;;;8.70;;
69126;SDS011;56688;50.234;19.292;2023-03-31T05:11:09;11.60;;;9.40;;
69126;SDS011;56688;50.234;19.292;2023-03-31T05:13:36;14.00;;;8.40;;
69126;SDS011;56688;50.234;19.292;2023-03-31T05:16:05;15.10;;;9.20;;
69126;SDS011;56688;50.234;19.292;2023-03-31T05:18:33;15.00;;;10.00;;
69126;SDS011;56688;50.234;19.292;2023-03-31T05:21:09;12.20;;;7.00;;
69126;SDS011;56688;50.234;19.292;2023-03-31T05:23:38;13.70;;;10.70;;
69126;SDS011;56688;50.234;19.292;2023-03-31T05:26:05;15.10;;;10.50;;
69126;SDS011;56688;50.234;19.292;2023-03-31T05:28:34;15.60;;;10.90;;
69126;SDS011;56688;50.234;19.292;2023-03-31T05:31:02;13.80;;;10.40;;
69126;SDS011;56688;50.234;19.292;2023-03-31T05:33:30;11.10;;;8.90;;
69126;SDS011;56688;50.234;19.292;2023-03-31T05:35:57;12.30;;;9.20;;
69126;SDS011;56688;50.234;19.292;2023-03-31T05:38:26;11.30;;;7.90;;
69126;SDS011;56688;50.234;19.292;2023-03-31T05:40:57;11.20;;;7.80;;
69126;SDS011;56688;50.234;19.292;2023-03-31T05:43:24;11.30;;;8.20;;
69126;SDS011;56688;50.234;19.292;2023-03-31T05:45:51;15.40;;;9.30;;
69126;SDS011;56688;50.234;19.292;2023-03-31T05:48:18;10.70;;;8.70;;
69126;SDS011;56688;50.234;19.292;2023-03-31T05:50:45;12.50;;;8.60;;
69126;SDS011;56688;50.234;19.292;2023-03-31T05:53:12;13.90;;;8.90;;
69126;SDS011;56688;50.234;19.292;2023-03-31T05:55:39;11.90;;;9.70;;
69126;SDS011;56688;50.234;19.292;2023-03-31T05:58:06;12.50;;;10.30;;
69126;SDS011;56688;50.234;19.292;2023-03-31T06:00:34;14.30;;;10.30;;
69126;SDS011;56688;50.234;19.292;2023-03-31T06:03:03;11.90;;;9.30;;
69126;SDS011;56688;50.234;19.292;2023-03-31T06:05:33;9.60;;;6.00;;
69126;SDS011;56688;50.234;19.292;2023-03-31T06:08:01;10.00;;;6.90;;
69126;SDS011;56688;50.234;19.292;2023-03-31T06:10:28;12.60;;;7.80;;
69126;SDS011;56688;50.234;19.292;2023-03-31T06:12:54;10.80;;;7.70;;
69126;SDS011;56688;50.234;19.292;2023-03-31T06:15:21;9.70;;;6.40;;
69126;SDS011;56688;50.234;19.292;2023-03-31T06:17:48;9.90;;;7.50;;
69126;SDS011;56688;50.234;19.292;2023-03-31T06:20:15;9.60;;;7.20;;
69126;SDS011;56688;50.234;19.292;2023-03-31T06:22:53;9.50;;;6.50;;
69126;SDS011;56688;50.234;19.292;2023-03-31T06:25:20;9.60;;;7.40;;
69126;SDS011;56688;50.234;19.292;2023-03-31T06:27:47;10.50;;;6.00;;
69126;SDS011;56688;50.234;19.292;2023-03-31T06:30:14;8.70;;;6.30;;
69126;SDS011;56688;50.234;19.292;2023-03-31T06:32:41;10.50;;;6.30;;
69126;SDS011;56688;50.234;19.292;2023-03-31T06:35:08;10.00;;;6.20;;
69126;SDS011;56688;50.234;19.292;2023-03-31T06:37:35;8.30;;;6.00;;
69126;SDS011;56688;50.234;19.292;2023-03-31T06:40:02;10.70;;;6.60;;
69126;SDS011;56688;50.234;19.292;2023-03-31T06:42:30;8.70;;;5.60;;
69126;SDS011;56688;50.234;19.292;2023-03-31T06:44:57;7.00;;;5.10;;
69126;SDS011;56688;50.234;19.292;2023-03-31T06:47:23;8.20;;;5.30;;
69126;SDS011;56688;50.234;19.292;2023-03-31T06:49:50;7.10;;;5.10;;
69126;SDS011;56688;50.234;19.292;2023-03-31T06:52:17;8.70;;;4.50;;
69126;SDS011;56688;50.234;19.292;2023-03-31T06:54:44;6.90;;;4.30;;
69126;SDS011;56688;50.234;19.292;2023-03-31T06:57:11;5.60;;;3.70;;
69126;SDS011;56688;50.234;19.292;2023-03-31T06:59:38;4.90;;;4.00;;
69126;SDS011;56688;50.234;19.292;2023-03-31T07:02:05;6.70;;;4.00;;
69126;SDS011;56688;50.234;19.292;2023-03-31T07:04:32;6.10;;;3.70;;
69126;SDS011;56688;50.234;19.292;2023-03-31T07:06:59;5.80;;;3.60;;
69126;SDS011;56688;50.234;19.292;2023-03-31T07:09:26;6.70;;;3.90;;
69126;SDS011;56688;50.234;19.292;2023-03-31T07:11:53;6.70;;;3.80;;
69126;SDS011;56688;50.234;19.292;2023-03-31T07:14:22;6.00;;;3.30;;
69126;SDS011;56688;50.234;19.292;2023-03-31T07:16:49;5.60;;;3.60;;
69126;SDS011;56688;50.234;19.292;2023-03-31T07:19:16;5.30;;;3.20;;
69126;SDS011;56688;50.234;19.292;2023-03-31T07:21:43;6.60;;;3.60;;
69126;SDS011;56688;50.234;19.292;2023-03-31T07:24:11;6.10;;;3.00;;
69126;SDS011;56688;50.234;19.292;2023-03-31T07:26:38;5.90;;;3.40;;
69126;SDS011;56688;50.234;19.292;2023-03-31T07:29:05;4.80;;;3.10;;
69126;SDS011;56688;50.234;19.292;2023-03-31T07:31:32;6.70;;;3.20;;
69126;SDS011;56688;50.234;19.292;2023-03-31T07:34:00;5.30;;;3.10;;
69126;SDS011;56688;50.234;19.292;2023-03-31T07:36:27;6.30;;;2.40;;
69126;SDS011;56688;50.234;19.292;2023-03-31T07:38:55;6.80;;;3.00;;
69126;SDS011;56688;50.234;19.292;2023-03-31T07:41:22;5.30;;;2.60;;
69126;SDS011;56688;50.234;19.292;2023-03-31T07:43:50;8.20;;;2.90;;
69126;SDS011;56688;50.234;19.292;2023-03-31T07:46:19;6.50;;;2.60;;
69126;SDS011;56688;50.234;19.292;2023-03-31T07:48:48;6.60;;;2.70;;
69126;SDS011;56688;50.234;19.292;2023-03-31T07:51:16;6.10;;;2.50;;
69126;SDS011;56688;50.234;19.292;2023-03-31T07:53:45;5.30;;;2.40;;
69126;SDS011;56688;50.234;19.292;2023-03-31T07:56:14;4.60;;;2.10;;
69126;SDS011;56688;50.234;19.292;2023-03-31T07:58:42;4.90;;;2.50;;
69126;SDS011;56688;50.234;19.292;2023-03-31T08:01:12;5.30;;;2.30;;
69126;SDS011;56688;50.234;19.292;2023-03-31T08:03:43;2.90;;;1.80;;
69126;SDS011;56688;50.234;19.292;2023-03-31T08:06:17;5.70;;;2.40;;
69126;SDS011;56688;50.234;19.292;2023-03-31T08:08:46;7.00;;;2.30;;
69126;SDS011;56688;50.234;19.292;2023-03-31T08:11:12;6.00;;;2.30;;
69126;SDS011;56688;50.234;19.292;2023-03-31T08:13:39;9.10;;;2.20;;
69126;SDS011;56688;50.234;19.292;2023-03-31T08:16:06;3.40;;;2.20;;
69126;SDS011;56688;50.234;19.292;2023-03-31T08:18:34;4.60;;;2.20;;
69126;SDS011;56688;50.234;19.292;2023-03-31T08:21:00;5.30;;;2.00;;
69126;SDS011;56688;50.234;19.292;2023-03-31T08:23:27;5.10;;;2.20;;
69126;SDS011;56688;50.234;19.292;2023-03-31T08:25:54;5.10;;;2.50;;
69126;SDS011;56688;50.234;19.292;2023-03-31T08:28:34;5.00;;;2.20;;
69126;SDS011;56688;50.234;19.292;2023-03-31T08:31:03;4.10;;;2.10;;
69126;SDS011;56688;50.234;19.292;2023-03-31T08:33:31;4.50;;;2.00;;
69126;SDS011;56688;50.234;19.292;2023-03-31T08:36:06;2.60;;;1.70;;
69126;SDS011;56688;50.234;19.292;2023-03-31T08:38:36;4.30;;;2.20;;
69126;SDS011;56688;50.234;19.292;2023-03-31T08:41:05;4.90;;;2.00;;
69126;SDS011;56688;50.234;19.292;2023-03-31T08:43:39;3.60;;;1.70;;
69126;SDS011;56688;50.234;19.292;2023-03-31T08:46:12;5.40;;;2.00;;
69126;SDS011;56688;50.234;19.292;2023-03-31T08:48:44;4.10;;;1.80;;
69126;SDS011;56688;50.234;19.292;2023-03-31T08:53:51;6.10;;;2.40;;
69126;SDS011;56688;50.234;19.292;2023-03-31T08:56:32;4.40;;;2.20;;
69126;SDS011;56688;50.234;19.292;2023-03-31T08:59:05;7.50;;;2.10;;
69126;SDS011;56688;50.234;19.292;2023-03-31T09:01:46;6.00;;;2.20;;
69126;SDS011;56688;50.234;19.292;2023-03-31T09:04:31;4.60;;;2.00;;
69126;SDS011;56688;50.234;19.292;2023-03-31T09:07:05;5.20;;;2.10;;
69126;SDS011;56688;50.234;19.292;2023-03-31T09:12:28;7.50;;;2.30;;
69126;SDS011;56688;50.234;19.292;2023-03-31T09:15:05;4.00;;;1.90;;
69126;SDS011;56688;50.234;19.292;2023-03-31T09:17:39;5.00;;;1.80;;
69126;SDS011;56688;50.234;19.292;2023-03-31T09:20:14;5.00;;;1.90;;
69126;SDS011;56688;50.234;19.292;2023-03-31T09:27:46;3.40;;;1.90;;
69126;SDS011;56688;50.234;19.292;2023-03-31T09:30:18;3.40;;;1.60;;
69126;SDS011;56688;50.234;19.292;2023-03-31T09:32:48;3.80;;;1.70;;
69126;SDS011;56688;50.234;19.292;2023-03-31T09:35:22;4.10;;;1.70;;
69126;SDS011;56688;50.234;19.292;2023-03-31T09:37:51;4.50;;;1.60;;
69126;SDS011;56688;50.234;19.292;2023-03-31T09:40:20;3.70;;;1.60;;
69126;SDS011;56688;50.234;19.292;2023-03-31T09:42:51;3.40;;;1.90;;
69126;SDS011;56688;50.234;19.292;2023-03-31T09:45:22;3.70;;;1.90;;
69126;SDS011;56688;50.234;19.292;2023-03-31T09:47:50;5.00;;;2.10;;
69126;SDS011;56688;50.234;19.292;2023-03-31T09:50:20;3.10;;;2.00;;
69126;SDS011;56688;50.234;19.292;2023-03-31T09:52:52;4.90;;;2.00;;
69126;SDS011;56688;50.234;19.292;2023-03-31T09:55:27;4.20;;;1.60;;
69126;SDS011;56688;50.234;19.292;2023-03-31T09:58:11;5.30;;;2.20;;
69126;SDS011;56688;50.234;19.292;2023-03-31T10:00:41;3.80;;;1.70;;
69126;SDS011;56688;50.234;19.292;2023-03-31T10:03:22;5.00;;;1.90;;
69126;SDS011;56688;50.234;19.292;2023-03-31T10:05:50;5.50;;;1.90;;
69126;SDS011;56688;50.234;19.292;2023-03-31T10:08:22;5.50;;;2.30;;
69126;SDS011;56688;50.234;19.292;2023-03-31T10:10:52;3.40;;;1.90;;
69126;SDS011;56688;50.234;19.292;2023-03-31T10:13:24;6.90;;;2.10;;
69126;SDS011;56688;50.234;19.292;2023-03-31T10:16:01;3.60;;;1.80;;
69126;SDS011;56688;50.234;19.292;2023-03-31T10:18:31;4.90;;;1.60;;
69126;SDS011;56688;50.234;19.292;2023-03-31T10:21:01;6.50;;;1.70;;
69126;SDS011;56688;50.234;19.292;2023-03-31T10:23:31;5.00;;;1.60;;
69126;SDS011;56688;50.234;19.292;2023-03-31T10:26:01;3.60;;;1.50;;
69126;SDS011;56688;50.234;19.292;2023-03-31T10:28:30;4.50;;;1.60;;
69126;SDS011;56688;50.234;19.292;2023-03-31T10:30:59;3.60;;;1.30;;
69126;SDS011;56688;50.234;19.292;2023-03-31T10:33:29;4.30;;;2.00;;
69126;SDS011;56688;50.234;19.292;2023-03-31T10:36:02;4.70;;;1.90;;
69126;SDS011;56688;50.234;19.292;2023-03-31T10:38:36;2.70;;;1.30;;
69126;SDS011;56688;50.234;19.292;2023-03-31T10:41:08;3.40;;;1.60;;
69126;SDS011;56688;50.234;19.292;2023-03-31T10:46:07;5.40;;;1.80;;
69126;SDS011;56688;50.234;19.292;2023-03-31T10:48:37;4.30;;;2.00;;
69126;SDS011;56688;50.234;19.292;2023-03-31T10:53:41;3.30;;;1.50;;
69126;SDS011;56688;50.234;19.292;2023-03-31T11:12:29;4.20;;;1.90;;
69126;SDS011;56688;50.234;19.292;2023-03-31T11:17:57;6.00;;;1.80;;
69126;SDS011;56688;50.234;19.292;2023-03-31T11:42:14;6.00;;;2.00;;
69126;SDS011;56688;50.234;19.292;2023-03-31T11:44:47;7.50;;;2.00;;
69126;SDS011;56688;50.234;19.292;2023-03-31T11:47:18;4.50;;;1.80;;
69126;SDS011;56688;50.234;19.292;2023-03-31T11:49:53;4.30;;;1.80;;
69126;SDS011;56688;50.234;19.292;2023-03-31T11:52:26;5.80;;;1.80;;
69126;SDS011;56688;50.234;19.292;2023-03-31T11:54:58;5.40;;;2.10;;
69126;SDS011;56688;50.234;19.292;2023-03-31T12:00:04;7.80;;;1.90;;
69126;SDS011;56688;50.234;19.292;2023-03-31T12:05:20;6.90;;;2.10;;
69126;SDS011;56688;50.234;19.292;2023-03-31T12:10:30;4.00;;;1.90;;
69126;SDS011;56688;50.234;19.292;2023-03-31T12:13:04;5.70;;;2.00;;
69126;SDS011;56688;50.234;19.292;2023-03-31T12:15:51;4.70;;;1.70;;
69126;SDS011;56688;50.234;19.292;2023-03-31T12:18:28;4.10;;;1.70;;
69126;SDS011;56688;50.234;19.292;2023-03-31T12:21:02;4.10;;;1.40;;
69126;SDS011;56688;50.234;19.292;2023-03-31T12:23:33;3.20;;;1.30;;
69126;SDS011;56688;50.234;19.292;2023-03-31T12:28:34;5.90;;;1.40;;
69126;SDS011;56688;50.234;19.292;2023-03-31T12:31:03;4.00;;;1.50;;
69126;SDS011;56688;50.234;19.292;2023-03-31T12:33:35;7.90;;;1.70;;
69126;SDS011;56688;50.234;19.292;2023-03-31T12:41:44;5.40;;;1.70;;
69126;SDS011;56688;50.234;19.292;2023-03-31T12:52:55;2.40;;;1.20;;
69126;SDS011;56688;50.234;19.292;2023-03-31T13:06:01;2.60;;;1.30;;
69126;SDS011;56688;50.234;19.292;2023-03-31T13:11:17;4.60;;;1.40;;
69126;SDS011;56688;50.234;19.292;2023-03-31T13:16:31;7.60;;;1.60;;
69126;SDS011;56688;50.234;19.292;2023-03-31T13:19:00;6.20;;;1.80;;
69126;SDS011;56688;50.234;19.292;2023-03-31T13:21:27;4.30;;;1.20;;
69126;SDS011;56688;50.234;19.292;2023-03-31T13:24:02;4.00;;;1.40;;
69126;SDS011;56688;50.234;19.292;2023-03-31T13:34:36;7.00;;;1.20;;
69126;SDS011;56688;50.234;19.292;2023-03-31T13:45:32;4.60;;;1.20;;
69126;SDS011;56688;50.234;19.292;2023-03-31T13:53:31;2.10;;;1.00;;
69126;SDS011;56688;50.234;19.292;2023-03-31T13:56:07;5.40;;;1.00;;
69126;SDS011;56688;50.234;19.292;2023-03-31T13:58:49;4.60;;;1.00;;
69126;SDS011;56688;50.234;19.292;2023-03-31T14:01:39;3.10;;;0.80;;
69126;SDS011;56688;50.234;19.292;2023-03-31T14:04:13;3.40;;;1.10;;
69126;SDS011;56688;50.234;19.292;2023-03-31T14:07:03;8.10;;;1.40;;
69126;SDS011;56688;50.234;19.292;2023-03-31T14:09:38;4.30;;;1.00;;
69126;SDS011;56688;50.234;19.292;2023-03-31T14:14:54;3.80;;;1.00;;
69126;SDS011;56688;50.234;19.292;2023-03-31T14:17:25;5.70;;;1.20;;
69126;SDS011;56688;50.234;19.292;2023-03-31T14:30:47;6.10;;;1.30;;
69126;SDS011;56688;50.234;19.292;2023-03-31T14:38:47;4.10;;;1.60;;
69126;SDS011;56688;50.234;19.292;2023-03-31T14:41:18;5.30;;;1.80;;
69126;SDS011;56688;50.234;19.292;2023-03-31T14:43:47;9.30;;;1.60;;
69126;SDS011;56688;50.234;19.292;2023-03-31T14:46:18;4.50;;;1.50;;
69126;SDS011;56688;50.234;19.292;2023-03-31T14:48:48;4.20;;;1.50;;
69126;SDS011;56688;50.234;19.292;2023-03-31T14:51:17;4.80;;;1.80;;
69126;SDS011;56688;50.234;19.292;2023-03-31T14:53:58;4.50;;;1.70;;
69126;SDS011;56688;50.234;19.292;2023-03-31T14:56:33;8.00;;;1.70;;
69126;SDS011;56688;50.234;19.292;2023-03-31T14:59:05;9.60;;;1.80;;
69126;SDS011;56688;50.234;19.292;2023-03-31T15:01:34;9.10;;;2.00;;
69126;SDS011;56688;50.234;19.292;2023-03-31T15:04:08;5.10;;;1.70;;
69126;SDS011;56688;50.234;19.292;2023-03-31T15:06:39;8.80;;;2.20;;
69126;SDS011;56688;50.234;19.292;2023-03-31T15:09:08;6.20;;;2.20;;
69126;SDS011;56688;50.234;19.292;2023-03-31T15:11:44;6.30;;;2.30;;
69126;SDS011;56688;50.234;19.292;2023-03-31T15:14:12;5.60;;;2.30;;
69126;SDS011;56688;50.234;19.292;2023-03-31T15:16:41;8.20;;;2.80;;
69126;SDS011;56688;50.234;19.292;2023-03-31T15:19:26;8.20;;;2.50;;
69126;SDS011;56688;50.234;19.292;2023-03-31T15:21:57;8.00;;;2.40;;
69126;SDS011;56688;50.234;19.292;2023-03-31T15:24:28;4.90;;;2.10;;
69126;SDS011;56688;50.234;19.292;2023-03-31T15:26:58;6.50;;;2.40;;
69126;SDS011;56688;50.234;19.292;2023-03-31T15:29:35;8.60;;;2.80;;
69126;SDS011;56688;50.234;19.292;2023-03-31T15:32:11;6.00;;;2.80;;
69126;SDS011;56688;50.234;19.292;2023-03-31T15:34:41;9.80;;;3.00;;
69126;SDS011;56688;50.234;19.292;2023-03-31T15:37:09;7.90;;;2.90;;
69126;SDS011;56688;50.234;19.292;2023-03-31T15:39:36;6.80;;;2.60;;
69126;SDS011;56688;50.234;19.292;2023-03-31T15:42:04;10.30;;;5.60;;
69126;SDS011;56688;50.234;19.292;2023-03-31T15:47:19;7.50;;;3.10;;
69126;SDS011;56688;50.234;19.292;2023-03-31T15:49:56;6.50;;;3.00;;
69126;SDS011;56688;50.234;19.292;2023-03-31T15:52:25;10.70;;;3.00;;
69126;SDS011;56688;50.234;19.292;2023-03-31T15:54:54;8.10;;;3.50;;
69126;SDS011;56688;50.234;19.292;2023-03-31T15:57:22;11.00;;;4.70;;
69126;SDS011;56688;50.234;19.292;2023-03-31T15:59:57;10.60;;;4.50;;
69126;SDS011;56688;50.234;19.292;2023-03-31T16:02:34;10.60;;;6.10;;
69126;SDS011;56688;50.234;19.292;2023-03-31T16:05:05;28.50;;;16.60;;
69126;SDS011;56688;50.234;19.292;2023-03-31T16:07:46;12.90;;;7.60;;
69126;SDS011;56688;50.234;19.292;2023-03-31T16:10:20;11.30;;;5.90;;
69126;SDS011;56688;50.234;19.292;2023-03-31T16:12:53;10.40;;;6.50;;
69126;SDS011;56688;50.234;19.292;2023-03-31T16:18:11;20.50;;;11.90;;
69126;SDS011;56688;50.234;19.292;2023-03-31T16:20:44;16.10;;;9.70;;
69126;SDS011;56688;50.234;19.292;2023-03-31T16:23:19;12.40;;;6.10;;
69126;SDS011;56688;50.234;19.292;2023-03-31T16:25:49;11.40;;;4.10;;
69126;SDS011;56688;50.234;19.292;2023-03-31T16:28:17;7.40;;;3.90;;
69126;SDS011;56688;50.234;19.292;2023-03-31T16:30:48;7.00;;;3.40;;
69126;SDS011;56688;50.234;19.292;2023-03-31T16:33:16;8.70;;;3.90;;
69126;SDS011;56688;50.234;19.292;2023-03-31T16:35:46;11.80;;;4.10;;
69126;SDS011;56688;50.234;19.292;2023-03-31T16:38:16;12.60;;;4.00;;
69126;SDS011;56688;50.234;19.292;2023-03-31T16:40:44;9.00;;;4.50;;
69126;SDS011;56688;50.234;19.292;2023-03-31T16:43:17;12.40;;;4.70;;
69126;SDS011;56688;50.234;19.292;2023-03-31T16:45:47;11.20;;;4.30;;
69126;SDS011;56688;50.234;19.292;2023-03-31T16:48:16;11.00;;;5.20;;
69126;SDS011;56688;50.234;19.292;2023-03-31T16:50:45;10.80;;;5.30;;
69126;SDS011;56688;50.234;19.292;2023-03-31T16:53:14;12.20;;;5.40;;
69126;SDS011;56688;50.234;19.292;2023-03-31T16:55:42;9.50;;;4.50;;
69126;SDS011;56688;50.234;19.292;2023-03-31T16:58:10;16.70;;;8.10;;
69126;SDS011;56688;50.234;19.292;2023-03-31T17:00:37;17.40;;;10.80;;
69126;SDS011;56688;50.234;19.292;2023-03-31T17:03:06;21.50;;;14.70;;
69126;SDS011;56688;50.234;19.292;2023-03-31T17:05:38;20.50;;;12.40;;
69126;SDS011;56688;50.234;19.292;2023-03-31T17:08:08;13.30;;;7.20;;
69126;SDS011;56688;50.234;19.292;2023-03-31T17:10:36;11.70;;;6.50;;
69126;SDS011;56688;50.234;19.292;2023-03-31T17:13:04;13.50;;;7.40;;
69126;SDS011;56688;50.234;19.292;2023-03-31T17:15:32;20.80;;;11.30;;
69126;SDS011;56688;50.234;19.292;2023-03-31T17:18:02;24.60;;;12.40;;
69126;SDS011;56688;50.234;19.292;2023-03-31T17:20:29;44.40;;;18.70;;
69126;SDS011;56688;50.234;19.292;2023-03-31T17:22:57;199.70;;;63.60;;
69126;SDS011;56688;50.234;19.292;2023-03-31T17:25:24;119.90;;;38.50;;
69126;SDS011;56688;50.234;19.292;2023-03-31T17:27:51;101.60;;;34.90;;
69126;SDS011;56688;50.234;19.292;2023-03-31T17:30:18;68.40;;;24.60;;
69126;SDS011;56688;50.234;19.292;2023-03-31T17:35:27;23.90;;;10.10;;
69126;SDS011;56688;50.234;19.292;2023-03-31T17:37:55;24.20;;;9.50;;
69126;SDS011;56688;50.234;19.292;2023-03-31T17:40:23;80.20;;;31.80;;
69126;SDS011;56688;50.234;19.292;2023-03-31T17:42:53;110.30;;;39.70;;
69126;SDS011;56688;50.234;19.292;2023-03-31T17:45:20;32.70;;;12.40;;
69126;SDS011;56688;50.234;19.292;2023-03-31T17:47:47;12.70;;;6.80;;
69126;SDS011;56688;50.234;19.292;2023-03-31T17:50:14;37.00;;;16.80;;
69126;SDS011;56688;50.234;19.292;2023-03-31T17:52:41;118.80;;;47.40;;